Meyers, California
Current Conditions -  °F | °C
As of 1:55 AM on Saturday 29 Nov 2014 (Local Time) from KAUN Reporting Station
Overcast Overcast  
Wind Chill: 42°   Ceiling: 2000
Heat Index: 48°   Visibility: 2.5mi
Dew Point: 46°   Wind: 15mph
Humidity: 93%   Direction: 110°ESE
Pressure: 29.87"   Gusts: NA
Location:  38.9502°N, 120.79°W
Report Text: KAUN 290955Z AUTO 11013KT 2 1/2SM OVC020 09/08 A2987 RMK AO1 P0001
Loading
Personal Weather Stations






























Interactive Weather Map New forecast layout! Learn more

10-Day Weather Forecast

Advertisements
Track Severe Weather on mobile